sensor_id;sensor_type;location;lat;lon;timestamp;pressure;altitude;pressure_sealevel;temperature;humidity
18569;BME280;14780;48.316;-1.050;2023-06-10T00:00:55;98507.41;;;27.65;44.57
18569;BME280;14780;48.316;-1.050;2023-06-10T00:03:40;98514.03;;;27.64;44.31
18569;BME280;14780;48.316;-1.050;2023-06-10T00:06:26;98510.47;;;27.64;44.31
18569;BME280;14780;48.316;-1.050;2023-06-10T00:09:11;98509.66;;;27.63;44.21
18569;BME280;14780;48.316;-1.050;2023-06-10T00:11:56;98504.97;;;27.64;44.24
18569;BME280;14780;48.316;-1.050;2023-06-10T00:14:44;98502.53;;;27.62;44.31
18569;BME280;14780;48.316;-1.050;2023-06-10T00:17:29;98486.03;;;27.62;44.16
18569;BME280;14780;48.316;-1.050;2023-06-10T00:20:14;98469.56;;;27.62;44.13
18569;BME280;14780;48.316;-1.050;2023-06-10T00:22:59;98469.06;;;27.60;44.00
18569;BME280;14780;48.316;-1.050;2023-06-10T00:25:45;98488.31;;;27.60;43.94
18569;BME280;14780;48.316;-1.050;2023-06-10T00:28:30;98481.97;;;27.60;44.12
18569;BME280;14780;48.316;-1.050;2023-06-10T00:31:15;98470.19;;;27.59;44.09
18569;BME280;14780;48.316;-1.050;2023-06-10T00:34:00;98466.31;;;27.60;44.14
18569;BME280;14780;48.316;-1.050;2023-06-10T00:36:45;98471.28;;;27.58;43.98
18569;BME280;14780;48.316;-1.050;2023-06-10T00:39:29;98465.78;;;27.58;43.93
18569;BME280;14780;48.316;-1.050;2023-06-10T00:42:14;98469.66;;;27.57;43.78
18569;BME280;14780;48.316;-1.050;2023-06-10T00:44:58;98463.03;;;27.58;43.95
18569;BME280;14780;48.316;-1.050;2023-06-10T00:47:43;98467.75;;;27.58;43.95
18569;BME280;14780;48.316;-1.050;2023-06-10T00:50:28;98463.38;;;27.57;43.85
18569;BME280;14780;48.316;-1.050;2023-06-10T00:53:13;98451.06;;;27.54;43.65
18569;BME280;14780;48.316;-1.050;2023-06-10T00:55:58;98459.81;;;27.56;43.66
18569;BME280;14780;48.316;-1.050;2023-06-10T00:58:44;98461.75;;;27.56;43.82
18569;BME280;14780;48.316;-1.050;2023-06-10T01:01:29;98456.56;;;27.54;43.73
18569;BME280;14780;48.316;-1.050;2023-06-10T01:04:14;98465.28;;;27.56;43.67
18569;BME280;14780;48.316;-1.050;2023-06-10T01:10:19;98491.16;;;27.55;43.71
18569;BME280;14780;48.316;-1.050;2023-06-10T01:13:09;98498.91;;;27.53;43.56
18569;BME280;14780;48.316;-1.050;2023-06-10T01:15:56;98497.28;;;27.52;43.53
18569;BME280;14780;48.316;-1.050;2023-06-10T01:18:41;98498.09;;;27.53;43.33
18569;BME280;14780;48.316;-1.050;2023-06-10T01:21:26;98487.91;;;27.53;43.48
18569;BME280;14780;48.316;-1.050;2023-06-10T01:24:11;98481.28;;;27.54;43.52
18569;BME280;14780;48.316;-1.050;2023-06-10T01:26:59;98479.69;;;27.53;43.57
18569;BME280;14780;48.316;-1.050;2023-06-10T01:29:49;98486.28;;;27.52;43.34
18569;BME280;14780;48.316;-1.050;2023-06-10T01:32:43;98471.44;;;27.53;43.27
18569;BME280;14780;48.316;-1.050;2023-06-10T01:35:31;98474.47;;;27.52;43.32
18569;BME280;14780;48.316;-1.050;2023-06-10T01:38:16;98467.06;;;27.52;43.23
18569;BME280;14780;48.316;-1.050;2023-06-10T01:41:03;98448.91;;;27.51;43.42
18569;BME280;14780;48.316;-1.050;2023-06-10T01:43:49;98437.94;;;27.51;43.12
18569;BME280;14780;48.316;-1.050;2023-06-10T01:46:33;98432.44;;;27.51;43.44
18569;BME280;14780;48.316;-1.050;2023-06-10T01:49:19;98430.81;;;27.50;43.28
18569;BME280;14780;48.316;-1.050;2023-06-10T01:52:04;98427.28;;;27.50;43.37
18569;BME280;14780;48.316;-1.050;2023-06-10T01:54:49;98418.22;;;27.49;43.27
18569;BME280;14780;48.316;-1.050;2023-06-10T01:57:34;98412.72;;;27.49;43.29
18569;BME280;14780;48.316;-1.050;2023-06-10T02:00:19;98410.78;;;27.50;43.23
18569;BME280;14780;48.316;-1.050;2023-06-10T02:03:03;98398.19;;;27.49;43.29
18569;BME280;14780;48.316;-1.050;2023-06-10T02:05:48;98401.72;;;27.49;43.19
18569;BME280;14780;48.316;-1.050;2023-06-10T02:08:33;98398.19;;;27.49;42.98
18569;BME280;14780;48.316;-1.050;2023-06-10T02:11:17;98409.97;;;27.49;43.04
18569;BME280;14780;48.316;-1.050;2023-06-10T02:14:03;98429.19;;;27.49;43.08
18569;BME280;14780;48.316;-1.050;2023-06-10T02:16:47;98438.56;;;27.48;43.05
18569;BME280;14780;48.316;-1.050;2023-06-10T02:19:32;98435.31;;;27.46;42.99
18569;BME280;14780;48.316;-1.050;2023-06-10T02:22:16;98433.38;;;27.47;43.04
18569;BME280;14780;48.316;-1.050;2023-06-10T02:25:01;98434.19;;;27.47;42.92
18569;BME280;14780;48.316;-1.050;2023-06-10T02:27:46;98420.75;;;27.46;43.00
18569;BME280;14780;48.316;-1.050;2023-06-10T02:30:31;98427.88;;;27.47;43.01
18569;BME280;14780;48.316;-1.050;2023-06-10T02:33:16;98429.84;;;27.46;43.00
18569;BME280;14780;48.316;-1.050;2023-06-10T02:36:02;98432.59;;;27.46;42.94
18569;BME280;14780;48.316;-1.050;2023-06-10T02:38:47;98430.97;;;27.45;42.95
18569;BME280;14780;48.316;-1.050;2023-06-10T02:41:31;98440.28;;;27.44;42.86
18569;BME280;14780;48.316;-1.050;2023-06-10T02:44:17;98441.94;;;27.45;42.86
18569;BME280;14780;48.316;-1.050;2023-06-10T02:47:02;98438.38;;;27.45;42.77
18569;BME280;14780;48.316;-1.050;2023-06-10T02:49:47;98436.47;;;27.45;42.77
18569;BME280;14780;48.316;-1.050;2023-06-10T02:52:32;98434.81;;;27.44;42.76
18569;BME280;14780;48.316;-1.050;2023-06-10T02:55:17;98436.47;;;27.45;42.81
18569;BME280;14780;48.316;-1.050;2023-06-10T02:58:01;98430.44;;;27.43;42.73
18569;BME280;14780;48.316;-1.050;2023-06-10T03:00:47;98438.69;;;27.43;42.74
18569;BME280;14780;48.316;-1.050;2023-06-10T03:03:32;98432.38;;;27.43;42.57
18569;BME280;14780;48.316;-1.050;2023-06-10T03:06:18;98437.06;;;27.42;42.50
18569;BME280;14780;48.316;-1.050;2023-06-10T03:09:03;98427.69;;;27.43;42.52
18569;BME280;14780;48.316;-1.050;2023-06-10T03:11:48;98432.69;;;27.41;42.59
18569;BME280;14780;48.316;-1.050;2023-06-10T03:14:33;98435.13;;;27.43;42.68
18569;BME280;14780;48.316;-1.050;2023-06-10T03:17:19;98447.25;;;27.42;42.62
18569;BME280;14780;48.316;-1.050;2023-06-10T03:20:05;98440.09;;;27.41;42.50
18569;BME280;14780;48.316;-1.050;2023-06-10T03:22:50;98451.91;;;27.41;42.67
18569;BME280;14780;48.316;-1.050;2023-06-10T03:25:34;98448.34;;;27.41;42.42
18569;BME280;14780;48.316;-1.050;2023-06-10T03:28:19;98455.78;;;27.40;42.42
18569;BME280;14780;48.316;-1.050;2023-06-10T03:31:04;98455.78;;;27.40;42.33
18569;BME280;14780;48.316;-1.050;2023-06-10T03:33:49;98454.19;;;27.39;42.52
18569;BME280;14780;48.316;-1.050;2023-06-10T03:36:34;98450.31;;;27.40;42.29
18569;BME280;14780;48.316;-1.050;2023-06-10T03:39:22;98443.19;;;27.39;42.33
18569;BME280;14780;48.316;-1.050;2023-06-10T03:42:08;98442.38;;;27.39;42.30
18569;BME280;14780;48.316;-1.050;2023-06-10T03:44:52;98443.97;;;27.40;42.46
18569;BME280;14780;48.316;-1.050;2023-06-10T03:47:37;98444.31;;;27.38;42.41
18569;BME280;14780;48.316;-1.050;2023-06-10T03:50:22;98448.16;;;27.37;42.40
18569;BME280;14780;48.316;-1.050;2023-06-10T03:53:08;98457.22;;;27.38;42.36
18569;BME280;14780;48.316;-1.050;2023-06-10T03:55:52;98456.41;;;27.37;42.36
18569;BME280;14780;48.316;-1.050;2023-06-10T03:58:38;98460.28;;;27.36;42.23
18569;BME280;14780;48.316;-1.050;2023-06-10T04:01:22;98461.91;;;27.37;42.29
18569;BME280;14780;48.316;-1.050;2023-06-10T04:04:08;98468.22;;;27.38;42.35
18569;BME280;14780;48.316;-1.050;2023-06-10T04:06:52;98467.38;;;27.37;42.32
18569;BME280;14780;48.316;-1.050;2023-06-10T04:09:37;98469.63;;;27.35;42.21
18569;BME280;14780;48.316;-1.050;2023-06-10T04:12:22;98470.47;;;27.36;42.29
18569;BME280;14780;48.316;-1.050;2023-06-10T04:15:07;98461.09;;;27.37;42.22
18569;BME280;14780;48.316;-1.050;2023-06-10T04:17:52;98461.41;;;27.35;42.34
18569;BME280;14780;48.316;-1.050;2023-06-10T04:20:37;98462.53;;;27.34;42.27
18569;BME280;14780;48.316;-1.050;2023-06-10T04:23:22;98468.03;;;27.34;42.29
18569;BME280;14780;48.316;-1.050;2023-06-10T04:26:07;98471.59;;;27.35;42.18
18569;BME280;14780;48.316;-1.050;2023-06-10T04:28:52;98473.50;;;27.34;42.19
18569;BME280;14780;48.316;-1.050;2023-06-10T04:31:36;98468.03;;;27.34;42.11
18569;BME280;14780;48.316;-1.050;2023-06-10T04:34:21;98471.06;;;27.33;42.19
18569;BME280;14780;48.316;-1.050;2023-06-10T04:37:05;98477.38;;;27.33;42.02
18569;BME280;14780;48.316;-1.050;2023-06-10T04:39:51;98480.13;;;27.33;42.08
18569;BME280;14780;48.316;-1.050;2023-06-10T04:42:36;98482.06;;;27.33;42.18
18569;BME280;14780;48.316;-1.050;2023-06-10T04:45:21;98482.06;;;27.33;42.13
18569;BME280;14780;48.316;-1.050;2023-06-10T04:48:06;98489.50;;;27.32;41.97
18569;BME280;14780;48.316;-1.050;2023-06-10T04:50:52;98485.94;;;27.32;42.08
18569;BME280;14780;48.316;-1.050;2023-06-10T04:53:37;98479.63;;;27.31;41.90
18569;BME280;14780;48.316;-1.050;2023-06-10T04:56:22;98485.13;;;27.31;41.91
18569;BME280;14780;48.316;-1.050;2023-06-10T04:59:07;98487.56;;;27.33;42.01
18569;BME280;14780;48.316;-1.050;2023-06-10T05:01:51;98479.63;;;27.31;42.09
18569;BME280;14780;48.316;-1.050;2023-06-10T05:04:36;98488.97;;;27.30;42.01
18569;BME280;14780;48.316;-1.050;2023-06-10T05:07:21;98488.19;;;27.30;42.04
18569;BME280;14780;48.316;-1.050;2023-06-10T05:10:06;98491.72;;;27.30;42.00
18569;BME280;14780;48.316;-1.050;2023-06-10T05:12:51;98499.16;;;27.30;41.84
18569;BME280;14780;48.316;-1.050;2023-06-10T05:15:36;98498.34;;;27.29;42.02
18569;BME280;14780;48.316;-1.050;2023-06-10T05:18:21;98493.69;;;27.30;41.97
18569;BME280;14780;48.316;-1.050;2023-06-10T05:21:06;98493.97;;;27.28;41.83
18569;BME280;14780;48.316;-1.050;2023-06-10T05:23:52;98490.09;;;27.29;41.90
18569;BME280;14780;48.316;-1.050;2023-06-10T05:26:36;98496.72;;;27.28;41.96
18569;BME280;14780;48.316;-1.050;2023-06-10T05:29:22;98493.97;;;27.28;41.93
18569;BME280;14780;48.316;-1.050;2023-06-10T05:32:08;98488.81;;;27.27;41.77
18569;BME280;14780;48.316;-1.050;2023-06-10T05:34:52;98503.84;;;27.29;41.90
18569;BME280;14780;48.316;-1.050;2023-06-10T05:37:37;98496.72;;;27.28;41.92
18569;BME280;14780;48.316;-1.050;2023-06-10T05:40:22;98505.47;;;27.30;41.83
18569;BME280;14780;48.316;-1.050;2023-06-10T05:43:06;98504.16;;;27.28;41.85
18569;BME280;14780;48.316;-1.050;2023-06-10T05:45:52;98505.78;;;27.29;41.73
18569;BME280;14780;48.316;-1.050;2023-06-10T05:48:37;98505.28;;;27.27;41.77
18569;BME280;14780;48.316;-1.050;2023-06-10T05:51:21;98509.97;;;27.26;41.72
18569;BME280;14780;48.316;-1.050;2023-06-10T05:54:06;98515.44;;;27.26;41.67
18569;BME280;14780;48.316;-1.050;2023-06-10T05:56:51;98513.84;;;27.25;41.70
18569;BME280;14780;48.316;-1.050;2023-06-10T05:59:35;98515.44;;;27.26;41.63
18569;BME280;14780;48.316;-1.050;2023-06-10T06:02:21;98519.81;;;27.27;41.64
18569;BME280;14780;48.316;-1.050;2023-06-10T06:05:06;98527.25;;;27.27;41.60
18569;BME280;14780;48.316;-1.050;2023-06-10T06:07:50;98532.75;;;27.27;41.76
18569;BME280;14780;48.316;-1.050;2023-06-10T06:10:36;98530.31;;;27.25;41.75
18569;BME280;14780;48.316;-1.050;2023-06-10T06:13:20;98540.47;;;27.25;41.83
18569;BME280;14780;48.316;-1.050;2023-06-10T06:16:05;98534.19;;;27.24;41.77
18569;BME280;14780;48.316;-1.050;2023-06-10T06:18:49;98537.44;;;27.26;41.81
18569;BME280;14780;48.316;-1.050;2023-06-10T06:21:34;98553.41;;;27.24;41.64
18569;BME280;14780;48.316;-1.050;2023-06-10T06:24:19;98553.91;;;27.26;41.62
18569;BME280;14780;48.316;-1.050;2023-06-10T06:27:05;98557.78;;;27.25;41.59
18569;BME280;14780;48.316;-1.050;2023-06-10T06:29:50;98564.91;;;27.26;41.77
18569;BME280;14780;48.316;-1.050;2023-06-10T06:32:35;98566.03;;;27.25;41.75
18569;BME280;14780;48.316;-1.050;2023-06-10T06:35:20;98550.34;;;27.26;41.84
18569;BME280;14780;48.316;-1.050;2023-06-10T06:38:05;98549.53;;;27.25;41.89
18569;BME280;14780;48.316;-1.050;2023-06-10T06:40:50;98550.66;;;27.24;41.91
18569;BME280;14780;48.316;-1.050;2023-06-10T06:43:34;98560.53;;;27.25;42.06
18569;BME280;14780;48.316;-1.050;2023-06-10T06:46:19;98566.81;;;27.26;42.25
18569;BME280;14780;48.316;-1.050;2023-06-10T06:49:04;98563.78;;;27.27;42.47
18569;BME280;14780;48.316;-1.050;2023-06-10T06:51:49;98567.84;;;27.30;42.50
18569;BME280;14780;48.316;-1.050;2023-06-10T06:54:34;98565.59;;;27.32;42.61
18569;BME280;14780;48.316;-1.050;2023-06-10T06:57:18;98575.47;;;27.33;42.74
18569;BME280;14780;48.316;-1.050;2023-06-10T07:00:03;98577.91;;;27.34;42.79
18569;BME280;14780;48.316;-1.050;2023-06-10T07:02:49;98577.59;;;27.36;42.85
18569;BME280;14780;48.316;-1.050;2023-06-10T07:05:33;98582.28;;;27.35;43.01
18569;BME280;14780;48.316;-1.050;2023-06-10T07:08:18;98585.53;;;27.37;43.06
18569;BME280;14780;48.316;-1.050;2023-06-10T07:11:03;98580.03;;;27.37;43.13
18569;BME280;14780;48.316;-1.050;2023-06-10T07:13:47;98592.34;;;27.40;43.42
18569;BME280;14780;48.316;-1.050;2023-06-10T07:16:32;98586.56;;;27.41;43.33
18569;BME280;14780;48.316;-1.050;2023-06-10T07:19:17;98597.25;;;27.43;43.65
18569;BME280;14780;48.316;-1.050;2023-06-10T07:22:02;98598.03;;;27.43;43.74
18569;BME280;14780;48.316;-1.050;2023-06-10T07:24:47;98596.91;;;27.44;43.67
18569;BME280;14780;48.316;-1.050;2023-06-10T07:27:31;98602.09;;;27.46;43.86
18569;BME280;14780;48.316;-1.050;2023-06-10T07:30:16;98609.56;;;27.45;43.86
18569;BME280;14780;48.316;-1.050;2023-06-10T07:33:01;98607.59;;;27.46;44.06
18569;BME280;14780;48.316;-1.050;2023-06-10T07:35:46;98610.66;;;27.44;43.94
18569;BME280;14780;48.316;-1.050;2023-06-10T07:38:32;98617.28;;;27.43;44.27
18569;BME280;14780;48.316;-1.050;2023-06-10T07:41:17;98617.59;;;27.42;44.02
18569;BME280;14780;48.316;-1.050;2023-06-10T07:44:02;98615.16;;;27.40;44.19
18569;BME280;14780;48.316;-1.050;2023-06-10T07:46:47;98620.66;;;27.40;44.22
18569;BME280;14780;48.316;-1.050;2023-06-10T07:49:31;98625.31;;;27.40;44.27
18569;BME280;14780;48.316;-1.050;2023-06-10T07:52:16;98625.84;;;27.42;44.09
18569;BME280;14780;48.316;-1.050;2023-06-10T07:55:01;98623.88;;;27.42;43.98
18569;BME280;14780;48.316;-1.050;2023-06-10T07:57:45;98629.69;;;27.41;43.89
18569;BME280;14780;48.316;-1.050;2023-06-10T08:00:30;98629.19;;;27.39;44.05
18569;BME280;14780;48.316;-1.050;2023-06-10T08:03:14;98633.88;;;27.38;43.92
18569;BME280;14780;48.316;-1.050;2023-06-10T08:05:59;98630.59;;;27.36;43.75
18569;BME280;14780;48.316;-1.050;2023-06-10T08:08:44;98639.97;;;27.35;43.97
18569;BME280;14780;48.316;-1.050;2023-06-10T08:11:30;98633.69;;;27.35;43.80
18569;BME280;14780;48.316;-1.050;2023-06-10T08:14:16;98634.47;;;27.35;43.92
18569;BME280;14780;48.316;-1.050;2023-06-10T08:17:01;98636.09;;;27.36;43.93
18569;BME280;14780;48.316;-1.050;2023-06-10T08:19:45;98647.72;;;27.33;43.82
18569;BME280;14780;48.316;-1.050;2023-06-10T08:22:30;98641.09;;;27.34;43.95
18569;BME280;14780;48.316;-1.050;2023-06-10T08:25:15;98630.94;;;27.35;43.70
18569;BME280;14780;48.316;-1.050;2023-06-10T08:27:59;98643.00;;;27.34;43.84
18569;BME280;14780;48.316;-1.050;2023-06-10T08:30:44;98652.09;;;27.34;43.68
18569;BME280;14780;48.316;-1.050;2023-06-10T08:33:29;98662.56;;;27.32;43.95
18569;BME280;14780;48.316;-1.050;2023-06-10T08:36:14;98655.94;;;27.33;44.03
18569;BME280;14780;48.316;-1.050;2023-06-10T08:38:59;98659.50;;;27.34;43.86
18569;BME280;14780;48.316;-1.050;2023-06-10T08:41:51;98656.44;;;27.35;44.03
18569;BME280;14780;48.316;-1.050;2023-06-10T08:44:42;98658.06;;;27.36;43.84
18569;BME280;14780;48.316;-1.050;2023-06-10T08:47:30;98661.94;;;27.35;43.87
18569;BME280;14780;48.316;-1.050;2023-06-10T08:50:20;98666.66;;;27.35;43.90
18569;BME280;14780;48.316;-1.050;2023-06-10T08:53:06;98671.50;;;27.38;44.02
18569;BME280;14780;48.316;-1.050;2023-06-10T08:55:52;98669.06;;;27.36;44.02
18569;BME280;14780;48.316;-1.050;2023-06-10T08:58:37;98667.94;;;27.37;43.91
18569;BME280;14780;48.316;-1.050;2023-06-10T09:01:26;98666.84;;;27.38;43.86
18569;BME280;14780;48.316;-1.050;2023-06-10T09:04:12;98672.34;;;27.38;43.89
18569;BME280;14780;48.316;-1.050;2023-06-10T09:06:57;98673.13;;;27.39;44.08
18569;BME280;14780;48.316;-1.050;2023-06-10T09:09:44;98673.97;;;27.39;44.18
18569;BME280;14780;48.316;-1.050;2023-06-10T09:12:30;98679.47;;;27.39;44.08
18569;BME280;14780;48.316;-1.050;2023-06-10T09:15:14;98671.72;;;27.41;44.29
18569;BME280;14780;48.316;-1.050;2023-06-10T09:18:01;98674.97;;;27.43;44.31
18569;BME280;14780;48.316;-1.050;2023-06-10T09:20:46;98674.38;;;27.46;44.46
18569;BME280;14780;48.316;-1.050;2023-06-10T09:23:31;98681.50;;;27.47;44.80
18569;BME280;14780;48.316;-1.050;2023-06-10T09:26:17;98684.75;;;27.49;44.69
18569;BME280;14780;48.316;-1.050;2023-06-10T09:29:06;98694.53;;;27.55;44.71
18569;BME280;14780;48.316;-1.050;2023-06-10T09:31:53;98693.09;;;27.58;44.92
18569;BME280;14780;48.316;-1.050;2023-06-10T09:34:37;98686.78;;;27.57;45.08
18569;BME280;14780;48.316;-1.050;2023-06-10T09:37:23;98692.81;;;27.59;44.98
18569;BME280;14780;48.316;-1.050;2023-06-10T09:40:08;98696.06;;;27.61;44.99
18569;BME280;14780;48.316;-1.050;2023-06-10T09:42:57;98693.31;;;27.61;45.12
18569;BME280;14780;48.316;-1.050;2023-06-10T09:45:42;98696.06;;;27.61;45.18
18569;BME280;14780;48.316;-1.050;2023-06-10T09:48:27;98692.97;;;27.63;45.00
18569;BME280;14780;48.316;-1.050;2023-06-10T09:51:13;98692.19;;;27.62;44.94
18569;BME280;14780;48.316;-1.050;2023-06-10T09:53:59;98693.31;;;27.61;45.14
18569;BME280;14780;48.316;-1.050;2023-06-10T09:56:51;98699.59;;;27.62;45.08
18569;BME280;14780;48.316;-1.050;2023-06-10T09:59:37;98693.59;;;27.60;45.08
18569;BME280;14780;48.316;-1.050;2023-06-10T10:02:22;98691.69;;;27.60;44.95
18569;BME280;14780;48.316;-1.050;2023-06-10T10:05:07;98693.59;;;27.60;45.08
18569;BME280;14780;48.316;-1.050;2023-06-10T10:07:52;98700.22;;;27.59;44.93
18569;BME280;14780;48.316;-1.050;2023-06-10T10:10:37;98694.72;;;27.59;44.89
18569;BME280;14780;48.316;-1.050;2023-06-10T10:13:22;98692.28;;;27.57;44.92
18569;BME280;14780;48.316;-1.050;2023-06-10T10:16:14;98690.06;;;27.59;45.08
18569;BME280;14780;48.316;-1.050;2023-06-10T10:19:02;98695.84;;;27.58;45.02
18569;BME280;14780;48.316;-1.050;2023-06-10T10:22:01;98695.22;;;27.61;45.01
18569;BME280;14780;48.316;-1.050;2023-06-10T10:24:53;98693.09;;;27.58;44.79
18569;BME280;14780;48.316;-1.050;2023-06-10T10:27:51;98699.72;;;27.57;44.88
18569;BME280;14780;48.316;-1.050;2023-06-10T10:30:42;98700.22;;;27.59;44.86
18569;BME280;14780;48.316;-1.050;2023-06-10T10:33:58;98700.41;;;27.62;44.72
18569;BME280;14780;48.316;-1.050;2023-06-10T10:36:41;98706.34;;;27.56;44.78
18569;BME280;14780;48.316;-1.050;2023-06-10T10:39:26;98695.63;;;27.54;44.71
18569;BME280;14780;48.316;-1.050;2023-06-10T10:42:13;98705.81;;;27.54;44.74
18569;BME280;14780;48.316;-1.050;2023-06-10T10:44:59;98696.75;;;27.53;44.97
18569;BME280;14780;48.316;-1.050;2023-06-10T10:47:52;98706.53;;;27.59;44.69
18569;BME280;14780;48.316;-1.050;2023-06-10T10:50:38;98697.56;;;27.54;44.88
18569;BME280;14780;48.316;-1.050;2023-06-10T10:53:24;98702.47;;;27.57;44.66
18569;BME280;14780;48.316;-1.050;2023-06-10T10:56:14;98700.50;;;27.57;44.87
18569;BME280;14780;48.316;-1.050;2023-06-10T10:59:07;98695.56;;;27.59;44.92
18569;BME280;14780;48.316;-1.050;2023-06-10T11:01:52;98700.22;;;27.59;44.97
18569;BME280;14780;48.316;-1.050;2023-06-10T11:04:37;98696.63;;;27.58;44.77
18569;BME280;14780;48.316;-1.050;2023-06-10T11:07:26;98695.56;;;27.59;45.04
18569;BME280;14780;48.316;-1.050;2023-06-10T11:10:13;98693.91;;;27.58;44.99
18569;BME280;14780;48.316;-1.050;2023-06-10T11:12:58;98690.06;;;27.59;45.04
18569;BME280;14780;48.316;-1.050;2023-06-10T11:15:47;98696.06;;;27.61;45.02
18569;BME280;14780;48.316;-1.050;2023-06-10T11:18:39;98695.44;;;27.64;44.89
18569;BME280;14780;48.316;-1.050;2023-06-10T11:21:24;98700.03;;;27.82;44.35
18569;BME280;14780;48.316;-1.050;2023-06-10T11:24:13;98703.66;;;27.64;45.04
18569;BME280;14780;48.316;-1.050;2023-06-10T11:27:18;98702.94;;;27.72;44.91
18569;BME280;14780;48.316;-1.050;2023-06-10T11:32:51;98704.50;;;27.65;44.99
18569;BME280;14780;48.316;-1.050;2023-06-10T11:35:37;98710.00;;;27.65;44.98
18569;BME280;14780;48.316;-1.050;2023-06-10T11:38:22;98707.25;;;27.65;44.91
18569;BME280;14780;48.316;-1.050;2023-06-10T11:41:07;98705.28;;;27.65;45.13
18569;BME280;14780;48.316;-1.050;2023-06-10T11:43:56;98713.53;;;27.65;45.07
18569;BME280;14780;48.316;-1.050;2023-06-10T11:46:42;98711.63;;;27.66;45.19
18569;BME280;14780;48.316;-1.050;2023-06-10T11:49:27;98718.75;;;27.67;45.14
18569;BME280;14780;48.316;-1.050;2023-06-10T11:52:12;98715.16;;;27.66;45.11
18569;BME280;14780;48.316;-1.050;2023-06-10T11:54:57;98714.06;;;27.67;44.97
18569;BME280;14780;48.316;-1.050;2023-06-10T11:57:41;98714.06;;;27.67;45.17
18569;BME280;14780;48.316;-1.050;2023-06-10T12:00:26;98715.69;;;27.68;44.90
18569;BME280;14780;48.316;-1.050;2023-06-10T12:03:11;98714.06;;;27.67;44.97
18569;BME280;14780;48.316;-1.050;2023-06-10T12:05:59;98712.13;;;27.68;45.00
18569;BME280;14780;48.316;-1.050;2023-06-10T12:08:44;98710.19;;;27.68;45.12
18569;BME280;14780;48.316;-1.050;2023-06-10T12:11:29;98716.50;;;27.69;45.05
18569;BME280;14780;48.316;-1.050;2023-06-10T12:14:14;98718.13;;;27.70;44.97
18569;BME280;14780;48.316;-1.050;2023-06-10T12:16:58;98716.19;;;27.70;45.18
18569;BME280;14780;48.316;-1.050;2023-06-10T12:19:44;98711.81;;;27.69;45.08
18569;BME280;14780;48.316;-1.050;2023-06-10T12:22:37;98717.22;;;27.74;45.19
18569;BME280;14780;48.316;-1.050;2023-06-10T12:25:26;98713.94;;;27.72;45.05
18569;BME280;14780;48.316;-1.050;2023-06-10T12:28:11;98722.19;;;27.72;45.14
18569;BME280;14780;48.316;-1.050;2023-06-10T12:31:18;98722.03;;;27.82;44.80
18569;BME280;14780;48.316;-1.050;2023-06-10T12:34:09;98722.13;;;27.77;44.94
18569;BME280;14780;48.316;-1.050;2023-06-10T12:36:54;98717.13;;;27.93;44.43
18569;BME280;14780;48.316;-1.050;2023-06-10T12:39:39;98716.41;;;27.74;44.90
18569;BME280;14780;48.316;-1.050;2023-06-10T12:42:25;98722.19;;;27.72;45.18
18569;BME280;14780;48.316;-1.050;2023-06-10T12:45:10;98715.56;;;27.73;45.03
18569;BME280;14780;48.316;-1.050;2023-06-10T12:48:10;98716.00;;;27.80;45.07
18569;BME280;14780;48.316;-1.050;2023-06-10T12:50:57;98712.81;;;27.73;45.20
18569;BME280;14780;48.316;-1.050;2023-06-10T12:53:42;98718.03;;;27.75;45.00
18569;BME280;14780;48.316;-1.050;2023-06-10T12:56:28;98724.34;;;27.75;45.20
18569;BME280;14780;48.316;-1.050;2023-06-10T12:59:12;98715.00;;;27.76;44.98
18569;BME280;14780;48.316;-1.050;2023-06-10T13:01:56;98724.06;;;27.77;45.09
18569;BME280;14780;48.316;-1.050;2023-06-10T13:04:44;98719.38;;;27.77;45.01
18569;BME280;14780;48.316;-1.050;2023-06-10T13:07:29;98723.44;;;27.80;44.95
18569;BME280;14780;48.316;-1.050;2023-06-10T13:10:15;98718.25;;;27.78;44.97
18569;BME280;14780;48.316;-1.050;2023-06-10T13:13:01;98717.13;;;27.79;44.96
18569;BME280;14780;48.316;-1.050;2023-06-10T13:15:47;98720.41;;;27.81;45.13
18569;BME280;14780;48.316;-1.050;2023-06-10T13:18:33;98718.75;;;27.80;44.85
18569;BME280;14780;48.316;-1.050;2023-06-10T13:21:22;98718.75;;;27.80;44.94
18569;BME280;14780;48.316;-1.050;2023-06-10T13:24:07;98719.28;;;27.82;45.00
18569;BME280;14780;48.316;-1.050;2023-06-10T13:26:52;98706.66;;;27.81;45.06
18569;BME280;14780;48.316;-1.050;2023-06-10T13:29:36;98716.00;;;27.80;44.97
18569;BME280;14780;48.316;-1.050;2023-06-10T13:32:21;98715.72;;;27.82;45.04
18569;BME280;14780;48.316;-1.050;2023-06-10T13:35:06;98710.22;;;27.82;44.96
18569;BME280;14780;48.316;-1.050;2023-06-10T13:37:52;98710.72;;;27.84;45.11
18569;BME280;14780;48.316;-1.050;2023-06-10T13:40:36;98718.97;;;27.84;44.94
18569;BME280;14780;48.316;-1.050;2023-06-10T13:43:22;98711.53;;;27.84;44.89
18569;BME280;14780;48.316;-1.050;2023-06-10T13:46:06;98710.41;;;27.85;44.94
18569;BME280;14780;48.316;-1.050;2023-06-10T13:48:51;98714.19;;;27.89;45.07
18569;BME280;14780;48.316;-1.050;2023-06-10T13:51:35;98711.94;;;27.91;45.12
18569;BME280;14780;48.316;-1.050;2023-06-10T13:54:20;98711.31;;;27.94;44.96
18569;BME280;14780;48.316;-1.050;2023-06-10T13:57:06;98702.13;;;27.99;44.86
18569;BME280;14780;48.316;-1.050;2023-06-10T13:59:51;98702.03;;;28.04;45.11
18569;BME280;14780;48.316;-1.050;2023-06-10T14:02:36;98711.59;;;28.06;44.85
18569;BME280;14780;48.316;-1.050;2023-06-10T14:05:22;98707.13;;;28.10;45.10
18569;BME280;14780;48.316;-1.050;2023-06-10T14:08:06;98719.75;;;28.11;45.06
18569;BME280;14780;48.316;-1.050;2023-06-10T14:10:51;98713.91;;;28.13;44.85
18569;BME280;14780;48.316;-1.050;2023-06-10T14:13:36;98715.25;;;28.15;44.86
18569;BME280;14780;48.316;-1.050;2023-06-10T14:16:23;98712.19;;;28.17;44.90
18569;BME280;14780;48.316;-1.050;2023-06-10T14:19:08;98715.13;;;28.20;44.82
18569;BME280;14780;48.316;-1.050;2023-06-10T14:21:52;98719.50;;;28.21;44.83
18569;BME280;14780;48.316;-1.050;2023-06-10T14:24:40;98716.47;;;28.23;44.96
18569;BME280;14780;48.316;-1.050;2023-06-10T14:27:24;98715.81;;;28.26;44.93
18569;BME280;14780;48.316;-1.050;2023-06-10T14:30:10;98722.16;;;28.26;44.82
18569;BME280;14780;48.316;-1.050;2023-06-10T14:32:55;98717.16;;;28.28;44.75